Time;durP1;ratioP1;P1;durP2;ratioP2;P2;SDS_P1;SDS_P2;PMS_P1;PMS_P2;Temp;Humidity;BMP_temperature;BMP_pressure;BME280_temperature;BME280_humidity;BME280_pressure;Samples;Min_cycle;Max_cycle;Signal;HPM_P1;HPM_P2
2022/11/02 00:01:28;;;;;;;0.10;0.10;;;11.10;99.90;10.10;97679.00;;;;5006340;28;20211;-75
2022/11/02 00:03:57;;;;;;;0.00;0.00;;;11.10;99.90;10.10;97678.00;;;;5002089;28;20777;-75
2022/11/02 00:06:25;;;;;;;0.10;0.10;;;11.00;99.90;10.20;97687.00;;;;4994933;28;20189;-75
2022/11/02 00:08:53;;;;;;;0.10;0.10;;;11.10;99.90;10.10;97681.00;;;;4992262;28;20675;-75
2022/11/02 00:11:21;;;;;;;0.10;0.10;;;11.10;99.90;10.10;97678.00;;;;4994238;28;20208;-74
2022/11/02 00:13:49;;;;;;;0.10;0.10;;;11.10;99.90;10.10;97682.00;;;;4994323;28;20200;-75
2022/11/02 00:16:22;;;;;;;0.10;0.10;;;11.10;99.90;10.10;97437.00;;;;4994436;28;20531;-74
2022/11/02 00:18:54;;;;;;;0.10;0.10;;;11.10;99.90;10.10;97678.00;;;;4993098;28;20200;-75
2022/11/02 00:21:27;;;;;;;0.10;0.10;;;11.00;99.90;10.10;97674.00;;;;4993899;28;20247;-74
2022/11/02 00:23:58;;;;;;;0.10;0.10;;;11.00;99.90;10.00;97648.00;;;;4993767;28;20200;-74
2022/11/02 00:26:28;;;;;;;0.10;0.10;;;11.00;99.90;10.00;97678.00;;;;4993997;28;20247;-74
2022/11/02 00:28:58;;;;;;;0.00;0.00;;;11.00;99.90;10.00;97680.00;;;;4992955;28;20626;-74
2022/11/02 00:31:26;;;;;;;0.10;0.10;;;10.90;99.90;10.10;97673.00;;;;5008630;28;20208;-75
2022/11/02 00:33:54;;;;;;;0.00;0.00;;;11.00;99.90;10.10;97677.00;;;;4992198;28;20259;-75
2022/11/02 00:36:24;;;;;;;0.00;0.00;;;11.10;99.90;10.10;97679.00;;;;4993929;28;20594;-75
2022/11/02 00:38:52;;;;;;;0.10;0.10;;;11.10;99.90;10.10;97682.00;;;;4992511;28;20192;-75
2022/11/02 00:41:22;;;;;;;0.10;0.10;;;11.10;99.90;10.00;97679.00;;;;4991356;28;20228;-75
2022/11/02 00:43:50;;;;;;;0.10;0.10;;;11.00;99.90;10.00;97688.00;;;;5008331;28;20586;-76
2022/11/02 00:46:19;;;;;;;0.00;0.00;;;10.90;99.90;9.90;97686.00;;;;5008862;28;20200;-76
2022/11/02 00:48:47;;;;;;;0.00;0.00;;;10.90;99.90;10.00;97702.00;;;;5067035;22;20235;-73
2022/11/02 00:51:15;;;;;;;0.00;0.00;;;11.00;99.90;10.00;97692.00;;;;5043116;28;20203;-73
2022/11/02 00:53:45;;;;;;;0.10;0.10;;;11.00;99.90;10.00;97685.00;;;;5031539;28;20194;-73
2022/11/02 00:56:13;;;;;;;0.10;0.10;;;11.00;99.90;9.90;97695.00;;;;5051039;28;20226;-73
2022/11/02 00:58:41;;;;;;;0.10;0.10;;;10.80;99.90;9.80;97680.00;;;;5031000;28;20219;-73
2022/11/02 01:01:11;;;;;;;0.10;0.10;;;10.80;99.90;9.90;97677.00;;;;5041575;28;20218;-73
2022/11/02 01:03:40;;;;;;;0.05;0.05;;;10.80;99.90;9.90;97685.00;;;;5048821;28;20199;-73
2022/11/02 01:06:12;;;;;;;0.08;0.08;;;10.90;99.90;9.90;97691.00;;;;5044822;28;20290;-73
2022/11/02 01:08:40;;;;;;;0.10;0.10;;;10.80;99.90;9.80;97705.00;;;;5031461;28;20254;-72
2022/11/02 01:11:13;;;;;;;0.10;0.10;;;10.70;99.90;9.70;97705.00;;;;5059399;28;20201;-72
2022/11/02 01:13:43;;;;;;;0.10;0.10;;;10.60;99.90;9.60;97686.00;;;;5050617;28;20192;-72
2022/11/02 01:16:13;;;;;;;0.10;0.10;;;10.60;99.90;9.60;97684.00;;;;5042642;28;20198;-72
2022/11/02 01:18:43;;;;;;;0.10;0.10;;;10.60;99.90;9.60;97697.00;;;;5042246;28;20202;-73
2022/11/02 01:21:13;;;;;;;0.10;0.10;;;10.60;99.90;9.60;97687.00;;;;5041617;28;20223;-72
2022/11/02 01:23:41;;;;;;;0.10;0.10;;;10.60;99.90;9.60;97687.00;;;;5051880;28;20260;-72
2022/11/02 01:26:13;;;;;;;0.10;0.10;;;10.60;99.90;9.70;97693.00;;;;5046293;28;20625;-72
2022/11/02 01:28:41;;;;;;;0.10;0.10;;;10.60;99.90;9.60;97694.00;;;;5051829;28;20214;-72
2022/11/02 01:31:12;;;;;;;0.10;0.10;;;10.60;99.90;9.60;97701.00;;;;5032733;28;20661;-72
2022/11/02 01:33:44;;;;;;;0.10;0.10;;;10.70;99.90;9.70;97683.00;;;;5040385;28;20198;-72
2022/11/02 01:36:15;;;;;;;0.10;0.10;;;10.70;99.90;9.80;97680.00;;;;5044717;28;20198;-72
2022/11/02 01:38:43;;;;;;;0.10;0.10;;;10.80;99.90;9.80;97682.00;;;;5027156;28;20264;-72
2022/11/02 01:41:13;;;;;;;0.10;0.10;;;10.80;99.90;9.90;97676.00;;;;5059632;28;20190;-72
2022/11/02 01:43:43;;;;;;;0.00;0.00;;;10.80;99.90;10.00;97658.00;;;;5063281;28;20661;-72
2022/11/02 01:46:19;;;;;;;0.10;0.10;;;10.90;99.90;9.90;97682.00;;;;5051103;28;20194;-71
2022/11/02 01:48:53;;;;;;;0.00;0.00;;;10.90;99.90;9.80;97674.00;;;;5032585;28;20252;-72
2022/11/02 01:51:26;;;;;;;0.10;0.10;;;10.80;99.90;9.70;97683.00;;;;5030727;28;20195;-72
2022/11/02 01:54:04;;;;;;;0.10;0.10;;;10.70;99.90;9.70;97673.00;;;;5042294;28;20191;-71
2022/11/02 01:56:38;;;;;;;0.00;0.00;;;10.60;99.90;9.60;97682.00;;;;5049037;28;20202;-71
2022/11/02 01:59:12;;;;;;;0.10;0.10;;;10.60;99.90;9.60;97674.00;;;;5024754;28;20203;-72
2022/11/02 02:01:40;;;;;;;0.10;0.10;;;10.50;99.90;9.60;97674.00;;;;5049663;28;20579;-72
2022/11/02 02:04:12;;;;;;;0.03;0.03;;;10.60;99.90;9.60;97651.00;;;;5034410;28;20669;-72
2022/11/02 02:06:41;;;;;;;0.10;0.10;;;10.60;99.90;9.60;97675.00;;;;5041733;28;20253;-71
2022/11/02 02:09:10;;;;;;;0.10;0.10;;;10.50;99.90;9.50;97677.00;;;;5049770;28;20196;-72
2022/11/02 02:11:40;;;;;;;0.10;0.10;;;10.50;99.90;9.50;97675.00;;;;5059631;28;20209;-73
2022/11/02 02:14:13;;;;;;;0.10;0.10;;;10.50;99.90;9.60;97677.00;;;;5047129;28;20277;-71
2022/11/02 02:17:07;;;;;;;0.10;0.10;;;10.60;99.90;9.50;97679.00;;;;5050402;28;20252;-71
2022/11/02 02:19:49;;;;;;;0.00;0.00;;;10.50;99.90;9.50;97672.00;;;;5049022;28;20194;-71
2022/11/02 02:23:11;;;;;;;0.10;0.10;;;10.50;99.90;9.40;97657.00;;;;5049232;28;20213;-71
2022/11/02 02:26:08;;;;;;;0.05;0.05;;;10.50;99.90;9.40;97667.00;;;;4935516;29;20210;-72
2022/11/02 02:28:47;;;;;;;0.00;0.00;;;10.40;99.90;9.30;97654.00;;;;5018834;28;20279;-72
2022/11/02 02:31:22;;;;;;;0.10;0.10;;;10.40;99.90;9.30;97637.00;;;;5043458;28;20202;-72
2022/11/02 02:33:59;;;;;;;0.10;0.10;;;10.40;99.90;9.40;97659.00;;;;5047136;28;20205;-72
2022/11/02 02:36:35;;;;;;;0.10;0.10;;;10.40;99.90;9.40;97665.00;;;;5047067;28;20182;-71
2022/11/02 02:39:12;;;;;;;0.10;0.10;;;10.30;99.90;9.30;97664.00;;;;5049309;28;20267;-71
2022/11/02 02:41:48;;;;;;;0.10;0.10;;;10.30;99.90;9.40;97663.00;;;;5029561;28;20313;-71
2022/11/02 02:44:23;;;;;;;0.10;0.10;;;10.40;99.90;9.30;97659.00;;;;5035569;28;20209;-72
2022/11/02 02:46:58;;;;;;;0.10;0.10;;;10.40;99.90;9.40;97661.00;;;;5049090;28;20209;-72
2022/11/02 02:49:36;;;;;;;0.00;0.00;;;10.40;99.90;9.40;97661.00;;;;5050256;28;20611;-72
2022/11/02 02:52:07;;;;;;;0.10;0.10;;;10.40;99.90;9.40;97656.00;;;;5050850;28;20190;-72
2022/11/02 02:54:40;;;;;;;0.10;0.10;;;10.50;99.90;9.50;97660.00;;;;5032800;28;20672;-71
2022/11/02 02:57:13;;;;;;;0.10;0.10;;;10.50;99.90;9.50;97653.00;;;;5050371;28;20210;-72
2022/11/02 02:59:45;;;;;;;0.10;0.10;;;10.50;99.90;9.60;97659.00;;;;5045836;28;20217;-72
2022/11/02 03:02:21;;;;;;;0.00;0.00;;;10.60;99.90;9.50;97644.00;;;;5044427;28;20210;-72
2022/11/02 03:04:49;;;;;;;0.05;0.05;;;10.60;99.90;9.60;97643.00;;;;5046480;28;20283;-72
2022/11/02 03:07:24;;;;;;;0.00;0.00;;;10.60;99.90;9.70;97658.00;;;;5034054;28;20270;-72
2022/11/02 03:10:16;;;;;;;0.10;0.10;;;10.70;99.90;9.70;97640.00;;;;5042095;28;20217;-72
2022/11/02 03:12:53;;;;;;;0.10;0.10;;;10.80;99.90;9.70;97652.00;;;;5048342;28;20670;-73
2022/11/02 03:15:33;;;;;;;0.10;0.10;;;10.80;99.90;9.70;97649.00;;;;5043920;28;20202;-72
2022/11/02 03:18:11;;;;;;;0.10;0.10;;;10.80;99.90;9.60;97649.00;;;;5040447;28;20239;-72
2022/11/02 03:20:59;;;;;;;0.10;0.10;;;10.70;99.90;9.60;97645.00;;;;5050435;28;20254;-73
2022/11/02 03:23:35;;;;;;;0.00;0.00;;;10.70;99.90;9.60;97642.00;;;;5072315;28;20236;-73
2022/11/02 03:26:10;;;;;;;0.05;0.05;;;10.60;99.90;9.50;97640.00;;;;5074203;28;20202;-74
2022/11/02 03:29:02;;;;;;;0.00;0.00;;;10.60;99.90;9.60;97640.00;;;;5074462;28;20271;-73
2022/11/02 03:31:40;;;;;;;0.10;0.10;;;10.60;99.90;9.60;97652.00;;;;5074805;28;20213;-71
2022/11/02 03:34:23;;;;;;;0.00;0.00;;;10.60;99.90;9.60;97642.00;;;;5056012;28;20206;-71
2022/11/02 03:37:03;;;;;;;0.10;0.10;;;10.70;99.90;9.60;97649.00;;;;5073107;28;20218;-71
2022/11/02 03:39:38;;;;;;;0.10;0.10;;;10.60;99.90;9.60;97647.00;;;;5060464;28;20301;-72
2022/11/02 03:42:11;;;;;;;0.10;0.10;;;10.60;99.90;9.60;97640.00;;;;5053319;28;20190;-73
2022/11/02 03:44:41;;;;;;;0.00;0.00;;;10.60;99.90;9.60;97636.00;;;;5052431;28;20202;-72
2022/11/02 03:47:17;;;;;;;0.10;0.10;;;10.60;99.90;9.40;97637.00;;;;5038638;28;20259;-71
2022/11/02 03:49:49;;;;;;;0.10;0.10;;;10.40;99.90;9.40;97632.00;;;;5053514;28;20281;-72
2022/11/02 03:52:25;;;;;;;0.10;0.10;;;10.50;99.90;9.20;97584.00;;;;5036349;28;20245;-72
2022/11/02 03:55:04;;;;;;;0.10;0.10;;;10.40;99.90;9.20;97641.00;;;;5040286;28;20201;-72
2022/11/02 03:57:43;;;;;;;0.10;0.10;;;10.40;99.90;9.20;97647.00;;;;5052771;28;20210;-72
2022/11/02 04:00:16;;;;;;;0.05;0.05;;;10.40;99.90;9.10;97649.00;;;;5036056;28;20263;-71
2022/11/02 04:02:58;;;;;;;0.10;0.10;;;10.40;99.90;9.10;97641.00;;;;5052567;28;20264;-72
2022/11/02 04:05:31;;;;;;;0.10;0.10;;;10.30;99.90;9.00;97645.00;;;;5042760;28;20203;-70
2022/11/02 04:08:23;;;;;;;0.10;0.10;;;10.10;99.90;8.90;97653.00;;;;5050604;28;20226;-72
2022/11/02 04:16:34;;;;;;;0.10;0.10;;;10.00;99.90;8.90;97654.00;;;;5034765;28;20226;-71
2022/11/02 04:19:26;;;;;;;0.10;0.10;;;10.00;99.90;8.90;97621.00;;;;5051449;28;20210;-72
2022/11/02 04:27:33;;;;;;;0.10;0.10;;;10.00;99.90;8.90;97664.00;;;;5051295;28;20624;-73
2022/11/02 04:30:01;;;;;;;0.00;0.00;;;10.00;99.90;8.90;97671.00;;;;5046756;28;20194;-72
2022/11/02 04:35:28;;;;;;;0.10;0.10;;;10.00;99.90;8.80;97663.00;;;;5046283;28;20198;-72
2022/11/02 04:40:43;;;;;;;0.10;0.10;;;9.90;99.90;9.00;97676.00;;;;5034422;28;20191;-72
2022/11/02 04:43:11;;;;;;;0.10;0.10;;;10.00;99.90;9.00;97668.00;;;;5032670;28;20660;-72
2022/11/02 04:45:39;;;;;;;0.00;0.00;;;10.00;99.90;8.90;97660.00;;;;5037364;28;20669;-72
2022/11/02 04:48:09;;;;;;;0.00;0.00;;;10.00;99.90;9.00;97650.00;;;;5037938;28;20235;-72
2022/11/02 04:50:40;;;;;;;0.10;0.10;;;9.90;99.90;9.00;97661.00;;;;5021000;28;20209;-71
2022/11/02 04:53:09;;;;;;;0.10;0.10;;;9.90;99.90;9.00;97656.00;;;;5035296;28;20293;-72
2022/11/02 04:55:39;;;;;;;0.10;0.10;;;9.90;99.90;9.00;97655.00;;;;5034926;28;20204;-72
2022/11/02 04:58:07;;;;;;;0.00;0.00;;;9.90;99.90;9.10;97653.00;;;;5051763;28;20203;-72
2022/11/02 05:00:35;;;;;;;0.00;0.00;;;10.00;99.90;9.10;97671.00;;;;5043738;28;20255;-72
2022/11/02 05:03:05;;;;;;;0.10;0.10;;;10.00;99.90;9.00;97640.00;;;;5047920;28;20654;-73
2022/11/02 05:05:41;;;;;;;0.10;0.10;;;10.00;99.90;9.10;97649.00;;;;5038957;28;20194;-72
2022/11/02 05:08:10;;;;;;;0.10;0.10;;;10.10;99.90;9.10;97659.00;;;;5042069;28;20215;-71
2022/11/02 05:10:38;;;;;;;0.00;0.00;;;10.00;99.90;9.10;97657.00;;;;5040425;28;20198;-72
2022/11/02 05:13:06;;;;;;;0.10;0.10;;;10.10;99.90;9.10;97664.00;;;;5055578;28;20687;-71
2022/11/02 05:15:39;;;;;;;0.10;0.10;;;10.10;99.90;9.10;97665.00;;;;5031552;28;20222;-70
2022/11/02 05:18:07;;;;;;;0.10;0.10;;;10.00;99.90;9.10;97665.00;;;;5033563;28;20245;-71
2022/11/02 05:20:38;;;;;;;0.10;0.10;;;10.10;99.90;9.10;97661.00;;;;5042843;28;20241;-73
2022/11/02 05:23:08;;;;;;;0.00;0.00;;;10.10;99.90;9.20;97659.00;;;;5048771;28;20225;-72
2022/11/02 05:25:36;;;;;;;0.00;0.00;;;10.10;99.90;9.20;97652.00;;;;5046003;28;20199;-72
2022/11/02 05:28:05;;;;;;;0.10;0.10;;;10.20;99.90;9.20;97655.00;;;;5032759;28;20245;-72
2022/11/02 05:30:36;;;;;;;0.10;0.10;;;10.20;99.90;9.20;97663.00;;;;5044990;28;20187;-72
2022/11/02 05:33:04;;;;;;;0.10;0.10;;;10.20;99.90;9.20;97661.00;;;;5043244;28;20209;-71
2022/11/02 05:35:33;;;;;;;0.10;0.10;;;10.20;99.90;9.10;97671.00;;;;5046336;28;20851;-72
2022/11/02 05:38:02;;;;;;;0.00;0.00;;;10.10;99.90;9.10;97666.00;;;;5037683;28;20254;-72
2022/11/02 05:40:32;;;;;;;0.10;0.10;;;10.10;99.90;9.10;97666.00;;;;5051685;28;20677;-70
2022/11/02 05:43:01;;;;;;;0.10;0.10;;;10.00;99.90;9.00;97665.00;;;;5049290;28;20193;-71
2022/11/02 05:45:30;;;;;;;0.10;0.10;;;10.00;99.90;9.00;97674.00;;;;5041026;28;20332;-70
2022/11/02 05:48:00;;;;;;;0.00;0.00;;;10.00;99.90;9.00;97662.00;;;;5032111;28;20434;-68
2022/11/02 05:50:29;;;;;;;0.10;0.10;;;9.90;99.90;9.10;97662.00;;;;5041216;28;20631;-71
2022/11/02 05:52:59;;;;;;;0.10;0.10;;;10.00;99.90;9.10;97675.00;;;;5049788;28;20214;-68
2022/11/02 05:55:28;;;;;;;0.10;0.10;;;10.00;99.90;9.10;97661.00;;;;5044814;28;20264;-68
2022/11/02 05:57:57;;;;;;;0.10;0.10;;;10.00;99.90;9.10;97680.00;;;;5044202;28;20275;-69
2022/11/02 06:00:25;;;;;;;0.10;0.10;;;10.10;99.90;9.20;97671.00;;;;5051104;28;20194;-68
2022/11/02 06:02:58;;;;;;;0.10;0.10;;;10.10;99.90;9.20;97662.00;;;;5051865;28;20201;-69
2022/11/02 06:05:26;;;;;;;0.10;0.10;;;10.20;99.90;9.30;97674.00;;;;5049566;28;20214;-69
2022/11/02 06:07:59;;;;;;;0.10;0.10;;;10.20;99.90;9.30;97675.00;;;;5050976;28;20224;-68
2022/11/02 06:10:28;;;;;;;0.10;0.10;;;10.30;99.90;8.20;97645.00;;;;5054327;28;20567;-69
2022/11/02 06:12:59;;;;;;;0.08;0.08;;;10.30;99.90;9.40;97684.00;;;;5059551;28;20194;-68
2022/11/02 06:15:28;;;;;;;0.10;0.10;;;10.30;99.90;9.40;97692.00;;;;5043332;28;20191;-69
2022/11/02 06:17:56;;;;;;;0.10;0.10;;;10.30;99.90;9.40;97674.00;;;;5030590;28;20223;-68
2022/11/02 06:20:25;;;;;;;0.10;0.10;;;10.40;99.90;9.50;97690.00;;;;5050825;28;20474;-68
2022/11/02 06:22:54;;;;;;;0.10;0.10;;;10.40;99.90;9.50;97680.00;;;;5038633;28;20203;-68
2022/11/02 06:25:22;;;;;;;0.10;0.10;;;10.50;99.90;9.50;97687.00;;;;5039299;28;20243;-68
2022/11/02 06:27:54;;;;;;;0.10;0.10;;;10.40;99.90;9.50;97682.00;;;;5044102;28;20692;-68
2022/11/02 06:30:27;;;;;;;0.10;0.10;;;10.50;99.90;9.60;97685.00;;;;5040320;28;20201;-68
2022/11/02 06:32:55;;;;;;;0.10;0.10;;;10.50;99.90;9.60;97693.00;;;;5050647;28;20191;-68
2022/11/02 06:35:24;;;;;;;0.00;0.00;;;10.50;99.90;9.60;97693.00;;;;5047505;28;20263;-68
2022/11/02 06:37:52;;;;;;;0.10;0.10;;;10.50;99.90;9.60;97708.00;;;;5039966;28;20219;-69
2022/11/02 06:40:20;;;;;;;0.10;0.10;;;10.50;99.90;9.60;97678.00;;;;5050757;28;20198;-69
2022/11/02 06:42:56;;;;;;;0.10;0.10;;;10.50;99.90;9.70;97710.00;;;;5053603;28;20195;-70
2022/11/02 06:45:45;;;;;;;0.10;0.10;;;10.60;99.90;9.60;97711.00;;;;5040355;28;20234;-70
2022/11/02 06:48:13;;;;;;;0.10;0.10;;;10.50;99.90;9.60;97706.00;;;;5042966;28;20222;-73
2022/11/02 06:50:42;;;;;;;0.10;0.10;;;10.50;99.90;9.60;97710.00;;;;5042654;28;20216;-73
2022/11/02 06:53:10;;;;;;;0.10;0.10;;;10.50;99.90;9.60;97733.00;;;;5045536;28;20226;-75
2022/11/02 06:55:39;;;;;;;0.10;0.10;;;10.50;99.90;9.50;97711.00;;;;5050726;28;20209;-74
2022/11/02 06:58:07;;;;;;;0.10;0.10;;;10.50;99.90;9.60;97713.00;;;;5054332;28;20260;-76
2022/11/02 07:00:36;;;;;;;0.10;0.10;;;10.50;99.90;9.50;97644.00;;;;5054672;28;20198;-75
2022/11/02 07:03:10;;;;;;;0.10;0.10;;;10.50;99.90;9.60;97656.00;;;;5042263;28;20579;-75
2022/11/02 07:05:39;;;;;;;0.10;0.10;;;10.50;99.90;9.60;97710.00;;;;5050555;28;20305;-75
2022/11/02 07:08:08;;;;;;;0.10;0.10;;;10.60;99.90;9.60;97715.00;;;;5035066;28;20637;-75
2022/11/02 07:10:37;;;;;;;0.05;0.05;;;10.60;99.90;9.70;97711.00;;;;5052056;28;20194;-76
2022/11/02 07:13:05;;;;;;;0.10;0.10;;;10.60;99.90;9.70;97711.00;;;;5062672;28;20202;-74
2022/11/02 07:15:34;;;;;;;0.10;0.10;;;10.70;99.90;9.70;97723.00;;;;5055887;28;20202;-74
2022/11/02 07:18:02;;;;;;;0.10;0.10;;;10.60;99.90;9.90;97729.00;;;;5056651;28;20218;-75
2022/11/02 07:20:32;;;;;;;0.10;0.10;;;10.80;99.90;9.90;97723.00;;;;5057362;28;20194;-75
2022/11/02 07:23:02;;;;;;;0.10;0.10;;;10.80;99.90;9.90;97729.00;;;;5056722;28;20195;-76
2022/11/02 07:25:33;;;;;;;0.10;0.10;;;10.80;99.90;9.90;97660.00;;;;5047959;28;20248;-76
2022/11/02 07:28:03;;;;;;;0.10;0.10;;;10.80;99.90;10.00;97698.00;;;;5054987;28;20234;-76
2022/11/02 07:30:34;;;;;;;0.10;0.10;;;10.90;99.90;10.10;97714.00;;;;5042910;28;20203;-75
2022/11/02 07:33:02;;;;;;;0.10;0.10;;;11.00;99.90;10.10;97730.00;;;;5053419;28;20562;-74
2022/11/02 07:35:33;;;;;;;0.10;0.10;;;11.10;99.90;10.20;97733.00;;;;5033670;28;20555;-75
2022/11/02 07:38:04;;;;;;;0.10;0.10;;;11.10;99.90;10.30;97744.00;;;;5042536;28;20219;-75
2022/11/02 07:40:35;;;;;;;0.10;0.10;;;11.20;99.90;10.40;97744.00;;;;5051484;28;20673;-75
2022/11/02 07:43:05;;;;;;;0.10;0.10;;;11.20;99.90;10.40;97744.00;;;;5044200;28;20206;-75
2022/11/02 07:45:46;;;;;;;0.10;0.10;;;11.30;99.90;10.40;97743.00;;;;5041139;28;20214;-74
2022/11/02 07:48:14;;;;;;;0.10;0.10;;;11.30;99.90;10.50;97752.00;;;;5035282;28;20229;-74
2022/11/02 07:50:48;;;;;;;0.10;0.10;;;11.40;99.90;10.50;97745.00;;;;5036379;28;20591;-74
2022/11/02 07:53:18;;;;;;;0.10;0.10;;;11.40;99.90;10.60;97744.00;;;;5045958;28;20577;-74
2022/11/02 07:55:46;;;;;;;0.10;0.10;;;11.50;99.90;10.60;97751.00;;;;5043594;28;20244;-74
2022/11/02 07:58:14;;;;;;;0.10;0.10;;;11.60;99.90;10.70;97754.00;;;;5052494;28;20217;-74
2022/11/02 08:00:43;;;;;;;0.00;0.00;;;11.60;99.90;10.80;97754.00;;;;5053676;28;20665;-74
2022/11/02 08:03:13;;;;;;;0.10;0.10;;;11.70;99.90;11.00;97778.00;;;;5047846;28;20195;-74
2022/11/02 08:05:43;;;;;;;0.10;0.10;;;11.80;99.90;11.10;97775.00;;;;5051251;28;20214;-74
2022/11/02 08:08:16;;;;;;;0.10;0.10;;;12.00;99.90;11.20;97774.00;;;;5051907;28;20225;-74
2022/11/02 08:10:46;;;;;;;0.00;0.00;;;12.10;99.90;11.30;97768.00;;;;5055189;28;20594;-74
2022/11/02 08:13:17;;;;;;;0.00;0.00;;;12.10;99.90;11.30;97784.00;;;;5045327;28;20199;-75
2022/11/02 08:15:50;;;;;;;0.00;0.00;;;12.20;99.90;11.30;97779.00;;;;5044226;28;20202;-73
2022/11/02 08:18:21;;;;;;;0.10;0.10;;;12.20;99.90;11.40;97776.00;;;;5040568;28;20210;-74
2022/11/02 08:20:51;;;;;;;0.10;0.10;;;12.20;99.90;11.30;97780.00;;;;5045602;28;20569;-74
2022/11/02 08:23:20;;;;;;;0.10;0.10;;;12.20;99.90;11.30;97789.00;;;;5047647;28;20190;-73
2022/11/02 08:25:50;;;;;;;0.10;0.10;;;12.20;99.90;11.30;97789.00;;;;5045646;28;20225;-74
2022/11/02 08:28:22;;;;;;;0.10;0.10;;;12.20;99.90;11.30;97795.00;;;;5046857;28;20215;-74
2022/11/02 08:30:50;;;;;;;0.10;0.10;;;12.20;99.90;11.30;97807.00;;;;5051955;28;20225;-74
2022/11/02 08:33:20;;;;;;;0.10;0.10;;;12.20;99.90;11.30;97793.00;;;;5053073;28;20195;-74
2022/11/02 08:35:51;;;;;;;0.10;0.10;;;12.20;99.90;11.50;97768.00;;;;5048906;28;20202;-73
2022/11/02 08:38:21;;;;;;;0.10;0.10;;;12.30;99.90;11.50;97790.00;;;;5057730;28;20207;-73
2022/11/02 08:40:49;;;;;;;0.10;0.10;;;12.30;99.90;11.50;97804.00;;;;5064974;28;20201;-72
2022/11/02 08:43:18;;;;;;;0.10;0.10;;;12.40;99.90;11.50;97802.00;;;;5054910;28;20324;-73
2022/11/02 08:45:46;;;;;;;0.00;0.00;;;12.40;99.90;11.60;97805.00;;;;5057040;28;20214;-73
2022/11/02 08:48:34;;;;;;;0.10;0.10;;;12.40;99.90;11.70;97801.00;;;;5053633;28;20222;-72
2022/11/02 08:51:04;;;;;;;0.10;0.10;;;12.50;99.90;11.70;97801.00;;;;5052779;28;20182;-72
2022/11/02 08:53:32;;;;;;;0.00;0.00;;;12.50;99.90;11.70;97802.00;;;;5052625;28;20239;-72
2022/11/02 08:56:00;;;;;;;0.00;0.00;;;12.50;99.90;11.70;97800.00;;;;5042679;28;20199;-72
2022/11/02 08:58:29;;;;;;;0.10;0.10;;;12.50;99.90;11.70;97802.00;;;;5038442;28;20226;-72
2022/11/02 09:00:57;;;;;;;0.00;0.00;;;12.50;99.90;11.70;97798.00;;;;5036179;28;20199;-72
2022/11/02 09:03:27;;;;;;;0.00;0.00;;;12.50;99.90;11.70;97801.00;;;;5037814;28;20261;-72
2022/11/02 09:06:01;;;;;;;0.10;0.10;;;12.60;99.90;11.50;97800.00;;;;5049162;28;20233;-72
2022/11/02 09:08:32;;;;;;;0.10;0.10;;;12.50;99.90;11.70;97801.00;;;;5044324;28;20230;-71
2022/11/02 09:11:02;;;;;;;0.00;0.00;;;12.50;99.90;11.80;97797.00;;;;5059800;28;20194;-71
2022/11/02 09:13:31;;;;;;;0.00;0.00;;;12.60;99.90;11.70;97815.00;;;;5057959;28;20259;-72
2022/11/02 09:16:00;;;;;;;0.00;0.00;;;12.50;99.90;11.70;97798.00;;;;5054319;28;20618;-71
2022/11/02 09:18:29;;;;;;;0.00;0.00;;;12.60;99.90;11.70;97812.00;;;;5036451;28;20694;-71
2022/11/02 09:20:57;;;;;;;0.00;0.00;;;12.50;99.90;11.70;97816.00;;;;5044327;28;20190;-72
2022/11/02 09:23:25;;;;;;;0.00;0.00;;;12.50;99.90;11.60;97812.00;;;;5041774;28;20195;-72
2022/11/02 09:25:54;;;;;;;0.10;0.10;;;12.50;99.90;11.60;97808.00;;;;5052110;28;20288;-72
2022/11/02 09:28:22;;;;;;;0.00;0.00;;;12.50;99.90;11.70;97811.00;;;;5039240;28;20210;-72
2022/11/02 09:30:50;;;;;;;0.00;0.00;;;12.50;99.90;11.70;97817.00;;;;5031882;28;20194;-71
2022/11/02 09:33:19;;;;;;;0.03;0.03;;;12.60;99.90;11.80;97811.00;;;;5043366;28;20269;-73
2022/11/02 09:35:49;;;;;;;0.10;0.10;;;12.60;99.90;11.80;97823.00;;;;5051168;28;20198;-72
2022/11/02 09:38:18;;;;;;;0.05;0.05;;;12.60;99.90;11.80;97819.00;;;;5036444;28;20642;-72
2022/11/02 09:41:01;;;;;;;0.00;0.00;;;12.60;99.90;11.80;97809.00;;;;5054879;28;20232;-71
2022/11/02 09:43:44;;;;;;;0.10;0.10;;;12.70;99.90;11.90;97814.00;;;;5051648;28;20570;-72
2022/11/02 09:46:19;;;;;;;0.10;0.10;;;12.70;99.90;11.90;97815.00;;;;5051284;28;20218;-71
2022/11/02 09:48:53;;;;;;;0.10;0.10;;;12.70;99.90;12.00;97812.00;;;;5033331;28;20542;-71
2022/11/02 09:51:26;;;;;;;0.10;0.10;;;12.80;99.90;11.90;97826.00;;;;5031621;28;20198;-70
2022/11/02 09:54:04;;;;;;;0.10;0.10;;;12.70;99.90;11.90;97813.00;;;;5044956;28;20193;-71
2022/11/02 09:56:35;;;;;;;0.10;0.10;;;12.80;99.90;12.00;97819.00;;;;5050299;28;20256;-71
2022/11/02 09:59:12;;;;;;;0.00;0.00;;;12.80;99.90;12.10;97813.00;;;;5040587;28;20269;-71
2022/11/02 10:01:57;;;;;;;0.10;0.10;;;12.90;99.90;12.10;97813.00;;;;5048247;28;20611;-71
2022/11/02 10:05:01;;;;;;;0.00;0.00;;;12.90;99.90;12.20;97828.00;;;;5048915;28;20202;-70
2022/11/02 10:08:13;;;;;;;0.00;0.00;;;13.00;99.90;12.20;97820.00;;;;5048878;28;20780;-74
2022/11/02 10:10:58;;;;;;;0.10;0.10;;;13.00;99.90;12.20;97834.00;;;;5057342;28;20193;-73
2022/11/02 10:13:40;;;;;;;0.10;0.10;;;13.00;99.90;12.10;97823.00;;;;5067338;28;20193;-74
2022/11/02 10:16:15;;;;;;;0.10;0.10;;;12.90;99.90;12.10;97845.00;;;;5048982;28;20237;-73
2022/11/02 10:18:48;;;;;;;0.10;0.10;;;12.90;99.90;12.00;97826.00;;;;5032615;28;20226;-74
2022/11/02 10:21:23;;;;;;;0.10;0.10;;;12.90;99.90;12.10;97831.00;;;;5034055;28;20191;-76
2022/11/02 10:23:53;;;;;;;0.00;0.00;;;12.90;99.90;12.10;97844.00;;;;5031922;28;20594;-76
2022/11/02 10:26:26;;;;;;;0.10;0.10;;;12.90;99.90;12.10;97832.00;;;;5030903;28;20561;-74
2022/11/02 10:29:03;;;;;;;0.10;0.10;;;13.00;99.90;12.10;97805.00;;;;5032752;28;20223;-74
2022/11/02 10:31:34;;;;;;;0.10;0.10;;;13.00;99.90;12.10;97835.00;;;;5055304;28;20194;-73
2022/11/02 10:34:22;;;;;;;0.10;0.10;;;13.00;99.90;12.10;97834.00;;;;5055276;28;20669;-76
2022/11/02 10:37:07;;;;;;;0.00;0.00;;;13.00;99.90;12.20;97838.00;;;;5050767;28;20213;-75
2022/11/02 10:39:45;;;;;;;0.10;0.10;;;13.00;99.90;12.20;97832.00;;;;5045369;28;20703;-73
2022/11/02 10:42:41;;;;;;;0.00;0.00;;;13.00;99.90;12.20;97831.00;;;;5065697;28;20216;-74
2022/11/02 10:45:49;;;;;;;0.10;0.10;;;13.10;99.90;12.20;97831.00;;;;5062811;28;20201;-73
2022/11/02 10:48:31;;;;;;;0.10;0.10;;;13.00;99.90;12.20;97842.00;;;;5055829;28;20228;-72
2022/11/02 10:51:08;;;;;;;0.10;0.10;;;13.10;99.90;12.20;97824.00;;;;5049692;28;20187;-73
2022/11/02 10:53:41;;;;;;;0.00;0.00;;;13.10;99.90;12.20;97831.00;;;;5048425;28;20194;-73
2022/11/02 10:56:19;;;;;;;0.00;0.00;;;13.10;99.90;12.30;97823.00;;;;5042536;28;20199;-74
2022/11/02 10:59:01;;;;;;;0.10;0.10;;;13.10;99.90;12.30;97844.00;;;;5049255;28;20210;-74
2022/11/02 11:01:32;;;;;;;0.10;0.10;;;13.10;99.90;12.30;97829.00;;;;5054024;28;20240;-74
2022/11/02 11:04:03;;;;;;;0.00;0.00;;;13.10;99.90;12.30;97814.00;;;;5052030;28;20202;-73
2022/11/02 11:06:36;;;;;;;0.00;0.00;;;13.10;99.90;12.30;97836.00;;;;5053731;28;20218;-73
2022/11/02 11:09:15;;;;;;;0.10;0.10;;;13.20;99.90;12.30;97844.00;;;;5053341;28;20190;-74
2022/11/02 11:11:55;;;;;;;0.10;0.10;;;13.10;99.90;12.30;97844.00;;;;5050509;28;20244;-74
2022/11/02 11:14:26;;;;;;;0.00;0.00;;;13.10;99.90;12.30;97840.00;;;;5074744;28;20194;-74
2022/11/02 11:17:18;;;;;;;0.00;0.00;;;13.10;99.90;12.20;97825.00;;;;5048421;28;20310;-74
2022/11/02 11:20:29;;;;;;;0.00;0.00;;;13.10;99.90;12.30;97828.00;;;;5051561;28;20579;-73
2022/11/02 11:23:16;;;;;;;0.00;0.00;;;13.10;99.90;12.20;97839.00;;;;5047435;28;20241;-74
2022/11/02 11:25:56;;;;;;;0.00;0.00;;;13.10;99.90;12.30;97814.00;;;;5052208;28;20190;-72
2022/11/02 11:28:30;;;;;;;0.00;0.00;;;13.10;99.90;12.40;97838.00;;;;5052849;28;20272;-74
2022/11/02 11:31:10;;;;;;;0.00;0.00;;;13.20;99.90;12.50;97844.00;;;;5041715;28;20265;-74
2022/11/02 11:33:47;;;;;;;0.10;0.10;;;13.20;99.90;12.50;97838.00;;;;5046814;28;20194;-74
2022/11/02 11:36:26;;;;;;;0.10;0.10;;;13.20;99.90;12.50;97835.00;;;;5033919;28;20190;-73
2022/11/02 11:38:59;;;;;;;0.10;0.10;;;13.30;99.90;12.40;97835.00;;;;5053936;28;20503;-73
2022/11/02 11:41:28;;;;;;;0.10;0.10;;;13.20;99.90;12.40;97832.00;;;;5060598;28;20611;-72
2022/11/02 11:43:57;;;;;;;0.10;0.10;;;13.20;99.90;12.60;97833.00;;;;5073009;28;20194;-72